Terminal Aerodrome Forecast
Issued by NWS

Home | Current Version | Previous Version | Text Only | Print | Product List | Glossary On
Versions: 1 2 3 4 5 6 7 8 9 10 11 12 13 14
000
FTUS43 KPAH 192320
TAFOWB
TAF
KOWB 192320Z 2000/2024 19009KT P6SM SCT250
     FM200100 20009KT P6SM SCT028 WS020/23040KT
     FM201100 20008KT P6SM BKN028
     FM202100 19008KT P6SM BKN015=

USA.gov is the U.S. government's official web portal to all federal, state and local government web resources and services.